sensor_id;sensor_type;location;lat;lon;timestamp;temperature;humidity
26583;DHT22;14230;45.382;10.998;2022-08-25T00:00:13;24.10;99.90
26583;DHT22;14230;45.382;10.998;2022-08-25T00:02:40;24.10;99.90
26583;DHT22;14230;45.382;10.998;2022-08-25T00:05:27;24.10;99.90
26583;DHT22;14230;45.382;10.998;2022-08-25T00:08:00;24.10;99.90
26583;DHT22;14230;45.382;10.998;2022-08-25T00:10:29;24.10;99.90
26583;DHT22;14230;45.382;10.998;2022-08-25T00:12:56;24.00;99.90
26583;DHT22;14230;45.382;10.998;2022-08-25T00:15:24;24.10;99.90
26583;DHT22;14230;45.382;10.998;2022-08-25T00:17:51;24.10;99.90
26583;DHT22;14230;45.382;10.998;2022-08-25T00:20:20;24.00;99.90
26583;DHT22;14230;45.382;10.998;2022-08-25T00:22:51;24.00;99.90
26583;DHT22;14230;45.382;10.998;2022-08-25T00:25:19;24.00;99.90
26583;DHT22;14230;45.382;10.998;2022-08-25T00:27:47;24.00;99.90
26583;DHT22;14230;45.382;10.998;2022-08-25T00:30:15;23.90;99.90
26583;DHT22;14230;45.382;10.998;2022-08-25T00:32:44;23.90;99.90
26583;DHT22;14230;45.382;10.998;2022-08-25T00:35:24;24.00;99.90
26583;DHT22;14230;45.382;10.998;2022-08-25T00:37:52;23.90;99.90
26583;DHT22;14230;45.382;10.998;2022-08-25T00:40:20;23.90;99.90
26583;DHT22;14230;45.382;10.998;2022-08-25T00:42:48;23.90;99.90
26583;DHT22;14230;45.382;10.998;2022-08-25T00:45:15;23.90;99.90
26583;DHT22;14230;45.382;10.998;2022-08-25T00:47:44;23.90;99.90
26583;DHT22;14230;45.382;10.998;2022-08-25T00:50:12;23.90;99.90
26583;DHT22;14230;45.382;10.998;2022-08-25T00:52:45;23.90;99.90
26583;DHT22;14230;45.382;10.998;2022-08-25T00:55:29;23.90;99.90
26583;DHT22;14230;45.382;10.998;2022-08-25T00:58:04;23.90;99.90
26583;DHT22;14230;45.382;10.998;2022-08-25T01:00:39;23.80;99.90
26583;DHT22;14230;45.382;10.998;2022-08-25T01:03:07;23.90;99.90
26583;DHT22;14230;45.382;10.998;2022-08-25T01:05:36;23.90;99.90
26583;DHT22;14230;45.382;10.998;2022-08-25T01:08:05;23.90;99.90
26583;DHT22;14230;45.382;10.998;2022-08-25T01:10:40;23.80;99.90
26583;DHT22;14230;45.382;10.998;2022-08-25T01:13:31;23.80;99.90
26583;DHT22;14230;45.382;10.998;2022-08-25T01:16:00;23.80;99.90
26583;DHT22;14230;45.382;10.998;2022-08-25T01:18:28;23.70;99.90
26583;DHT22;14230;45.382;10.998;2022-08-25T01:20:58;23.70;99.90
26583;DHT22;14230;45.382;10.998;2022-08-25T01:23:26;23.70;99.90
26583;DHT22;14230;45.382;10.998;2022-08-25T01:26:17;23.70;99.90
26583;DHT22;14230;45.382;10.998;2022-08-25T01:28:52;23.70;99.90
26583;DHT22;14230;45.382;10.998;2022-08-25T01:31:39;23.70;99.90
26583;DHT22;14230;45.382;10.998;2022-08-25T01:34:09;23.60;99.90
26583;DHT22;14230;45.382;10.998;2022-08-25T01:36:40;23.60;99.90
26583;DHT22;14230;45.382;10.998;2022-08-25T01:39:09;23.60;99.90
26583;DHT22;14230;45.382;10.998;2022-08-25T01:42:02;23.50;99.90
26583;DHT22;14230;45.382;10.998;2022-08-25T01:44:35;23.50;99.90
26583;DHT22;14230;45.382;10.998;2022-08-25T01:47:04;23.50;99.90
26583;DHT22;14230;45.382;10.998;2022-08-25T01:49:32;23.50;99.90
26583;DHT22;14230;45.382;10.998;2022-08-25T01:52:24;23.40;99.90
26583;DHT22;14230;45.382;10.998;2022-08-25T01:54:52;23.40;99.90
26583;DHT22;14230;45.382;10.998;2022-08-25T01:57:19;23.40;99.90
26583;DHT22;14230;45.382;10.998;2022-08-25T01:59:48;23.20;99.90
26583;DHT22;14230;45.382;10.998;2022-08-25T02:02:16;23.20;99.90
26583;DHT22;14230;45.382;10.998;2022-08-25T02:04:44;23.10;99.90
26583;DHT22;14230;45.382;10.998;2022-08-25T02:07:12;23.10;99.90
26583;DHT22;14230;45.382;10.998;2022-08-25T02:09:39;23.00;99.90
26583;DHT22;14230;45.382;10.998;2022-08-25T02:12:07;23.00;99.90
26583;DHT22;14230;45.382;10.998;2022-08-25T02:14:36;23.00;99.90
26583;DHT22;14230;45.382;10.998;2022-08-25T02:17:04;22.90;99.90
26583;DHT22;14230;45.382;10.998;2022-08-25T02:19:32;23.00;99.90
26583;DHT22;14230;45.382;10.998;2022-08-25T02:22:00;22.90;99.90
26583;DHT22;14230;45.382;10.998;2022-08-25T02:24:27;22.90;99.90
26583;DHT22;14230;45.382;10.998;2022-08-25T02:26:55;23.00;99.90
26583;DHT22;14230;45.382;10.998;2022-08-25T02:29:24;23.00;99.90
26583;DHT22;14230;45.382;10.998;2022-08-25T02:31:51;23.00;99.90
26583;DHT22;14230;45.382;10.998;2022-08-25T02:34:19;23.00;99.90
26583;DHT22;14230;45.382;10.998;2022-08-25T02:36:47;22.90;99.90
26583;DHT22;14230;45.382;10.998;2022-08-25T02:39:14;22.90;99.90
26583;DHT22;14230;45.382;10.998;2022-08-25T02:41:42;22.90;99.90
26583;DHT22;14230;45.382;10.998;2022-08-25T02:44:09;22.90;99.90
26583;DHT22;14230;45.382;10.998;2022-08-25T02:46:37;22.80;99.90
26583;DHT22;14230;45.382;10.998;2022-08-25T02:49:06;22.80;99.90
26583;DHT22;14230;45.382;10.998;2022-08-25T02:51:34;22.90;99.90
26583;DHT22;14230;45.382;10.998;2022-08-25T02:54:04;22.90;99.90
26583;DHT22;14230;45.382;10.998;2022-08-25T02:56:32;22.90;99.90
26583;DHT22;14230;45.382;10.998;2022-08-25T02:59:00;22.90;99.90
26583;DHT22;14230;45.382;10.998;2022-08-25T03:01:29;22.80;99.90
26583;DHT22;14230;45.382;10.998;2022-08-25T03:03:59;22.80;99.90
26583;DHT22;14230;45.382;10.998;2022-08-25T03:06:28;22.80;99.90
26583;DHT22;14230;45.382;10.998;2022-08-25T03:08:56;22.70;99.90
26583;DHT22;14230;45.382;10.998;2022-08-25T03:11:23;22.60;99.90
26583;DHT22;14230;45.382;10.998;2022-08-25T03:13:53;22.60;99.90
26583;DHT22;14230;45.382;10.998;2022-08-25T03:16:23;22.60;99.90
26583;DHT22;14230;45.382;10.998;2022-08-25T03:18:55;22.60;99.90
26583;DHT22;14230;45.382;10.998;2022-08-25T03:21:24;22.60;99.90
26583;DHT22;14230;45.382;10.998;2022-08-25T03:23:52;22.60;99.90
26583;DHT22;14230;45.382;10.998;2022-08-25T03:26:19;22.60;99.90
26583;DHT22;14230;45.382;10.998;2022-08-25T03:29:06;22.60;99.90
26583;DHT22;14230;45.382;10.998;2022-08-25T03:31:34;22.70;99.90
26583;DHT22;14230;45.382;10.998;2022-08-25T03:34:01;22.70;99.90
26583;DHT22;14230;45.382;10.998;2022-08-25T03:36:29;22.60;99.90
26583;DHT22;14230;45.382;10.998;2022-08-25T03:39:00;22.60;99.90
26583;DHT22;14230;45.382;10.998;2022-08-25T03:41:29;22.70;99.90
26583;DHT22;14230;45.382;10.998;2022-08-25T03:43:59;22.70;99.90
26583;DHT22;14230;45.382;10.998;2022-08-25T03:46:54;22.70;99.90
26583;DHT22;14230;45.382;10.998;2022-08-25T03:49:22;22.70;99.90
26583;DHT22;14230;45.382;10.998;2022-08-25T03:51:52;22.70;99.90
26583;DHT22;14230;45.382;10.998;2022-08-25T03:54:23;22.60;99.90
26583;DHT22;14230;45.382;10.998;2022-08-25T03:56:51;22.50;99.90
26583;DHT22;14230;45.382;10.998;2022-08-25T03:59:19;22.40;99.90
26583;DHT22;14230;45.382;10.998;2022-08-25T04:01:47;22.40;99.90
26583;DHT22;14230;45.382;10.998;2022-08-25T04:04:21;22.40;99.90
26583;DHT22;14230;45.382;10.998;2022-08-25T04:06:49;22.40;99.90
26583;DHT22;14230;45.382;10.998;2022-08-25T04:09:16;22.30;99.90
26583;DHT22;14230;45.382;10.998;2022-08-25T04:11:44;22.30;99.90
26583;DHT22;14230;45.382;10.998;2022-08-25T04:14:11;22.30;99.90
26583;DHT22;14230;45.382;10.998;2022-08-25T04:16:44;22.30;99.90
26583;DHT22;14230;45.382;10.998;2022-08-25T04:19:11;22.20;99.90
26583;DHT22;14230;45.382;10.998;2022-08-25T04:21:40;22.20;99.90
26583;DHT22;14230;45.382;10.998;2022-08-25T04:24:09;22.10;99.90
26583;DHT22;14230;45.382;10.998;2022-08-25T04:26:42;22.10;99.90
26583;DHT22;14230;45.382;10.998;2022-08-25T04:29:11;22.10;99.90
26583;DHT22;14230;45.382;10.998;2022-08-25T04:31:41;22.10;99.90
26583;DHT22;14230;45.382;10.998;2022-08-25T04:34:09;22.10;99.90
26583;DHT22;14230;45.382;10.998;2022-08-25T04:37:01;22.10;99.90
26583;DHT22;14230;45.382;10.998;2022-08-25T04:39:29;22.10;99.90
26583;DHT22;14230;45.382;10.998;2022-08-25T04:41:57;22.10;99.90
26583;DHT22;14230;45.382;10.998;2022-08-25T04:44:27;22.00;99.90
26583;DHT22;14230;45.382;10.998;2022-08-25T04:46:56;21.80;99.90
26583;DHT22;14230;45.382;10.998;2022-08-25T04:49:23;21.80;99.90
26583;DHT22;14230;45.382;10.998;2022-08-25T04:51:51;21.80;99.90
26583;DHT22;14230;45.382;10.998;2022-08-25T04:54:19;21.80;99.90
26583;DHT22;14230;45.382;10.998;2022-08-25T04:56:50;21.60;99.90
26583;DHT22;14230;45.382;10.998;2022-08-25T04:59:25;21.60;99.90
26583;DHT22;14230;45.382;10.998;2022-08-25T05:01:58;21.60;99.90
26583;DHT22;14230;45.382;10.998;2022-08-25T05:04:29;21.60;99.90
26583;DHT22;14230;45.382;10.998;2022-08-25T05:06:57;21.60;99.90
26583;DHT22;14230;45.382;10.998;2022-08-25T05:09:25;21.80;99.90
26583;DHT22;14230;45.382;10.998;2022-08-25T05:11:54;21.90;99.90
26583;DHT22;14230;45.382;10.998;2022-08-25T05:14:22;22.00;99.90
26583;DHT22;14230;45.382;10.998;2022-08-25T05:16:56;22.10;99.90
26583;DHT22;14230;45.382;10.998;2022-08-25T05:19:24;22.20;99.90
26583;DHT22;14230;45.382;10.998;2022-08-25T05:21:53;22.20;99.90
26583;DHT22;14230;45.382;10.998;2022-08-25T05:24:24;22.30;99.90
26583;DHT22;14230;45.382;10.998;2022-08-25T05:26:52;22.30;99.90
26583;DHT22;14230;45.382;10.998;2022-08-25T05:29:20;22.30;99.90
26583;DHT22;14230;45.382;10.998;2022-08-25T05:31:48;22.40;99.90
26583;DHT22;14230;45.382;10.998;2022-08-25T05:34:18;22.40;99.90
26583;DHT22;14230;45.382;10.998;2022-08-25T05:36:46;22.50;99.90
26583;DHT22;14230;45.382;10.998;2022-08-25T05:39:14;22.60;99.90
26583;DHT22;14230;45.382;10.998;2022-08-25T05:41:42;22.70;99.90
26583;DHT22;14230;45.382;10.998;2022-08-25T05:44:10;22.80;99.90
26583;DHT22;14230;45.382;10.998;2022-08-25T05:46:39;22.90;99.90
26583;DHT22;14230;45.382;10.998;2022-08-25T05:49:06;23.00;99.90
26583;DHT22;14230;45.382;10.998;2022-08-25T05:51:34;23.20;99.90
26583;DHT22;14230;45.382;10.998;2022-08-25T05:54:01;23.40;99.90
26583;DHT22;14230;45.382;10.998;2022-08-25T05:56:29;23.50;99.90
26583;DHT22;14230;45.382;10.998;2022-08-25T05:58:57;23.60;99.90
26583;DHT22;14230;45.382;10.998;2022-08-25T06:01:27;23.90;99.90
26583;DHT22;14230;45.382;10.998;2022-08-25T06:04:16;24.00;99.90
26583;DHT22;14230;45.382;10.998;2022-08-25T06:06:44;24.70;99.90
26583;DHT22;14230;45.382;10.998;2022-08-25T06:09:12;25.70;99.90
26583;DHT22;14230;45.382;10.998;2022-08-25T06:11:40;27.10;99.90
26583;DHT22;14230;45.382;10.998;2022-08-25T06:14:08;28.30;99.90
26583;DHT22;14230;45.382;10.998;2022-08-25T06:16:37;29.60;99.90
26583;DHT22;14230;45.382;10.998;2022-08-25T06:19:07;30.40;99.90
26583;DHT22;14230;45.382;10.998;2022-08-25T06:21:35;31.00;99.90
26583;DHT22;14230;45.382;10.998;2022-08-25T06:24:06;31.20;99.90
26583;DHT22;14230;45.382;10.998;2022-08-25T06:26:39;32.00;99.90
26583;DHT22;14230;45.382;10.998;2022-08-25T06:29:07;32.80;99.90
26583;DHT22;14230;45.382;10.998;2022-08-25T06:31:37;33.60;99.90
26583;DHT22;14230;45.382;10.998;2022-08-25T06:34:04;34.20;99.90
26583;DHT22;14230;45.382;10.998;2022-08-25T06:36:32;34.50;99.90
26583;DHT22;14230;45.382;10.998;2022-08-25T06:39:00;33.80;99.90
26583;DHT22;14230;45.382;10.998;2022-08-25T06:41:28;33.70;99.90
26583;DHT22;14230;45.382;10.998;2022-08-25T06:44:03;32.90;99.90
26583;DHT22;14230;45.382;10.998;2022-08-25T06:46:32;33.50;99.90
26583;DHT22;14230;45.382;10.998;2022-08-25T06:49:06;34.00;99.90
26583;DHT22;14230;45.382;10.998;2022-08-25T06:51:34;35.00;99.90
26583;DHT22;14230;45.382;10.998;2022-08-25T06:54:07;35.60;99.90
26583;DHT22;14230;45.382;10.998;2022-08-25T06:56:38;35.80;99.70
26583;DHT22;14230;45.382;10.998;2022-08-25T06:59:07;36.60;97.90
26583;DHT22;14230;45.382;10.998;2022-08-25T07:01:35;37.10;96.30
26583;DHT22;14230;45.382;10.998;2022-08-25T07:04:05;36.80;95.90
26583;DHT22;14230;45.382;10.998;2022-08-25T07:06:39;37.20;95.00
26583;DHT22;14230;45.382;10.998;2022-08-25T07:09:08;37.90;93.60
26583;DHT22;14230;45.382;10.998;2022-08-25T07:11:36;37.70;93.50
26583;DHT22;14230;45.382;10.998;2022-08-25T07:14:06;37.80;92.30
26583;DHT22;14230;45.382;10.998;2022-08-25T07:16:34;37.90;92.60
26583;DHT22;14230;45.382;10.998;2022-08-25T07:19:04;38.20;92.20
26583;DHT22;14230;45.382;10.998;2022-08-25T07:21:37;38.40;91.90
26583;DHT22;14230;45.382;10.998;2022-08-25T07:24:09;38.70;90.80
26583;DHT22;14230;45.382;10.998;2022-08-25T07:26:38;38.90;91.00
26583;DHT22;14230;45.382;10.998;2022-08-25T07:29:18;39.00;90.40
26583;DHT22;14230;45.382;10.998;2022-08-25T07:31:46;39.30;90.90
26583;DHT22;14230;45.382;10.998;2022-08-25T07:34:14;39.40;89.40
26583;DHT22;14230;45.382;10.998;2022-08-25T07:37:01;39.10;89.80
26583;DHT22;14230;45.382;10.998;2022-08-25T07:39:33;38.90;90.40
26583;DHT22;14230;45.382;10.998;2022-08-25T07:42:00;39.20;90.40
26583;DHT22;14230;45.382;10.998;2022-08-25T07:44:28;39.70;89.00
26583;DHT22;14230;45.382;10.998;2022-08-25T07:46:56;39.50;88.40
26583;DHT22;14230;45.382;10.998;2022-08-25T07:49:25;39.90;87.20
26583;DHT22;14230;45.382;10.998;2022-08-25T07:52:02;40.40;87.00
26583;DHT22;14230;45.382;10.998;2022-08-25T07:54:34;40.50;83.40
26583;DHT22;14230;45.382;10.998;2022-08-25T07:57:08;39.80;85.90
26583;DHT22;14230;45.382;10.998;2022-08-25T07:59:42;40.30;81.80
26583;DHT22;14230;45.382;10.998;2022-08-25T08:02:11;40.50;80.10
26583;DHT22;14230;45.382;10.998;2022-08-25T08:04:52;40.10;81.20
26583;DHT22;14230;45.382;10.998;2022-08-25T08:07:22;39.80;81.70
26583;DHT22;14230;45.382;10.998;2022-08-25T08:10:12;39.80;82.40
26583;DHT22;14230;45.382;10.998;2022-08-25T08:13:00;39.80;83.50
26583;DHT22;14230;45.382;10.998;2022-08-25T08:15:29;40.70;82.00
26583;DHT22;14230;45.382;10.998;2022-08-25T08:17:57;40.30;83.00
26583;DHT22;14230;45.382;10.998;2022-08-25T08:20:26;40.90;82.80
26583;DHT22;14230;45.382;10.998;2022-08-25T08:22:55;41.00;81.00
26583;DHT22;14230;45.382;10.998;2022-08-25T08:25:23;41.20;78.30
26583;DHT22;14230;45.382;10.998;2022-08-25T08:27:54;41.40;77.80
26583;DHT22;14230;45.382;10.998;2022-08-25T08:30:23;41.30;77.00
26583;DHT22;14230;45.382;10.998;2022-08-25T08:32:53;41.50;76.40
26583;DHT22;14230;45.382;10.998;2022-08-25T08:35:39;41.50;76.50
26583;DHT22;14230;45.382;10.998;2022-08-25T08:38:08;41.70;75.30
26583;DHT22;14230;45.382;10.998;2022-08-25T08:52:51;40.80;76.80
26583;DHT22;14230;45.382;10.998;2022-08-25T08:55:36;41.20;75.70
26583;DHT22;14230;45.382;10.998;2022-08-25T08:58:10;40.90;76.20
26583;DHT22;14230;45.382;10.998;2022-08-25T09:00:45;41.50;75.60
26583;DHT22;14230;45.382;10.998;2022-08-25T09:03:41;41.70;73.90
26583;DHT22;14230;45.382;10.998;2022-08-25T09:08:49;42.00;74.90
26583;DHT22;14230;45.382;10.998;2022-08-25T09:11:21;42.00;72.60
26583;DHT22;14230;45.382;10.998;2022-08-25T09:17:02;42.20;71.70
26583;DHT22;14230;45.382;10.998;2022-08-25T09:22:33;41.80;71.10
26583;DHT22;14230;45.382;10.998;2022-08-25T09:31:22;41.90;71.00
26583;DHT22;14230;45.382;10.998;2022-08-25T09:33:57;41.80;71.10
26583;DHT22;14230;45.382;10.998;2022-08-25T09:36:29;41.80;69.10
26583;DHT22;14230;45.382;10.998;2022-08-25T09:39:05;41.90;70.10
26583;DHT22;14230;45.382;10.998;2022-08-25T09:47:03;42.20;68.40
26583;DHT22;14230;45.382;10.998;2022-08-25T09:49:43;42.50;67.80
26583;DHT22;14230;45.382;10.998;2022-08-25T09:54:56;42.40;67.70
26583;DHT22;14230;45.382;10.998;2022-08-25T09:57:35;42.50;68.10
26583;DHT22;14230;45.382;10.998;2022-08-25T10:00:10;42.30;68.30
26583;DHT22;14230;45.382;10.998;2022-08-25T10:02:41;42.50;67.30
26583;DHT22;14230;45.382;10.998;2022-08-25T10:05:24;42.20;66.20
26583;DHT22;14230;45.382;10.998;2022-08-25T10:07:56;42.00;68.50
26583;DHT22;14230;45.382;10.998;2022-08-25T10:10:31;41.80;68.50
26583;DHT22;14230;45.382;10.998;2022-08-25T10:13:01;41.70;68.30
26583;DHT22;14230;45.382;10.998;2022-08-25T10:15:35;41.50;68.40
26583;DHT22;14230;45.382;10.998;2022-08-25T10:18:33;41.90;69.40
26583;DHT22;14230;45.382;10.998;2022-08-25T10:21:12;42.20;66.10
26583;DHT22;14230;45.382;10.998;2022-08-25T10:23:49;42.40;67.00
26583;DHT22;14230;45.382;10.998;2022-08-25T10:30:15;42.30;67.60
26583;DHT22;14230;45.382;10.998;2022-08-25T10:35:09;42.50;65.50
26583;DHT22;14230;45.382;10.998;2022-08-25T10:40:45;41.60;66.00
26583;DHT22;14230;45.382;10.998;2022-08-25T10:43:41;41.10;66.00
26583;DHT22;14230;45.382;10.998;2022-08-25T10:57:09;41.00;66.40
26583;DHT22;14230;45.382;10.998;2022-08-25T11:05:18;39.20;69.50
26583;DHT22;14230;45.382;10.998;2022-08-25T11:07:58;38.70;70.30
26583;DHT22;14230;45.382;10.998;2022-08-25T11:10:44;38.00;72.00
26583;DHT22;14230;45.382;10.998;2022-08-25T11:13:23;36.90;74.80
26583;DHT22;14230;45.382;10.998;2022-08-25T11:15:57;36.30;76.60
26583;DHT22;14230;45.382;10.998;2022-08-25T11:18:55;35.80;77.70
26583;DHT22;14230;45.382;10.998;2022-08-25T11:24:27;35.00;79.60
26583;DHT22;14230;45.382;10.998;2022-08-25T11:26:56;34.70;80.90
26583;DHT22;14230;45.382;10.998;2022-08-25T11:29:32;34.40;81.80
26583;DHT22;14230;45.382;10.998;2022-08-25T11:32:03;34.30;81.70
26583;DHT22;14230;45.382;10.998;2022-08-25T11:34:34;34.20;82.30
26583;DHT22;14230;45.382;10.998;2022-08-25T11:37:28;34.10;82.40
26583;DHT22;14230;45.382;10.998;2022-08-25T11:53:34;33.30;89.50
26583;DHT22;14230;45.382;10.998;2022-08-25T11:56:10;33.30;90.20
26583;DHT22;14230;45.382;10.998;2022-08-25T11:58:47;33.30;89.10
26583;DHT22;14230;45.382;10.998;2022-08-25T12:04:31;33.20;90.50
26583;DHT22;14230;45.382;10.998;2022-08-25T12:12:31;33.10;91.00
26583;DHT22;14230;45.382;10.998;2022-08-25T12:15:21;32.90;92.00
26583;DHT22;14230;45.382;10.998;2022-08-25T12:18:13;33.00;92.10
26583;DHT22;14230;45.382;10.998;2022-08-25T12:23:34;33.10;91.80
26583;DHT22;14230;45.382;10.998;2022-08-25T12:32:11;33.40;91.90
26583;DHT22;14230;45.382;10.998;2022-08-25T12:37:33;33.30;91.90
26583;DHT22;14230;45.382;10.998;2022-08-25T12:40:04;33.30;92.30
26583;DHT22;14230;45.382;10.998;2022-08-25T12:42:38;33.30;92.00
26583;DHT22;14230;45.382;10.998;2022-08-25T12:45:30;33.30;92.20
26583;DHT22;14230;45.382;10.998;2022-08-25T12:51:17;32.90;92.50
26583;DHT22;14230;45.382;10.998;2022-08-25T12:56:43;33.00;92.40
26583;DHT22;14230;45.382;10.998;2022-08-25T12:59:20;32.90;92.90
26583;DHT22;14230;45.382;10.998;2022-08-25T13:02:05;32.90;93.00
26583;DHT22;14230;45.382;10.998;2022-08-25T13:05:04;33.00;93.00
26583;DHT22;14230;45.382;10.998;2022-08-25T13:07:50;33.00;92.70
26583;DHT22;14230;45.382;10.998;2022-08-25T13:10:32;33.10;92.90
26583;DHT22;14230;45.382;10.998;2022-08-25T13:16:03;32.60;92.80
26583;DHT22;14230;45.382;10.998;2022-08-25T13:18:35;32.60;93.40
26583;DHT22;14230;45.382;10.998;2022-08-25T13:21:14;32.70;93.30
26583;DHT22;14230;45.382;10.998;2022-08-25T13:23:44;32.80;93.00
26583;DHT22;14230;45.382;10.998;2022-08-25T13:28:59;33.00;93.00
26583;DHT22;14230;45.382;10.998;2022-08-25T13:31:32;33.00;93.30
26583;DHT22;14230;45.382;10.998;2022-08-25T13:34:06;33.00;92.80
26583;DHT22;14230;45.382;10.998;2022-08-25T13:36:46;32.90;92.70
26583;DHT22;14230;45.382;10.998;2022-08-25T13:39:33;32.70;93.30
26583;DHT22;14230;45.382;10.998;2022-08-25T13:42:21;32.60;93.30
26583;DHT22;14230;45.382;10.998;2022-08-25T13:44:55;32.70;93.60
26583;DHT22;14230;45.382;10.998;2022-08-25T13:47:33;32.90;93.90
26583;DHT22;14230;45.382;10.998;2022-08-25T13:53:23;32.80;93.50
26583;DHT22;14230;45.382;10.998;2022-08-25T13:55:57;32.80;93.50
26583;DHT22;14230;45.382;10.998;2022-08-25T13:58:28;32.70;93.50
26583;DHT22;14230;45.382;10.998;2022-08-25T14:01:15;32.80;94.00
26583;DHT22;14230;45.382;10.998;2022-08-25T14:07:30;32.80;94.40
26583;DHT22;14230;45.382;10.998;2022-08-25T14:17:31;32.80;93.10
26583;DHT22;14230;45.382;10.998;2022-08-25T14:20:25;32.90;93.50
26583;DHT22;14230;45.382;10.998;2022-08-25T14:23:05;32.90;93.40
26583;DHT22;14230;45.382;10.998;2022-08-25T14:25:36;32.90;92.90
26583;DHT22;14230;45.382;10.998;2022-08-25T14:28:10;32.90;93.10
26583;DHT22;14230;45.382;10.998;2022-08-25T14:30:44;32.90;93.40
26583;DHT22;14230;45.382;10.998;2022-08-25T14:33:14;32.90;92.90
26583;DHT22;14230;45.382;10.998;2022-08-25T14:35:45;32.90;93.30
26583;DHT22;14230;45.382;10.998;2022-08-25T14:38:13;32.90;93.60
26583;DHT22;14230;45.382;10.998;2022-08-25T14:40:43;32.90;93.40
26583;DHT22;14230;45.382;10.998;2022-08-25T14:43:12;32.90;93.00
26583;DHT22;14230;45.382;10.998;2022-08-25T14:45:43;32.90;93.10
26583;DHT22;14230;45.382;10.998;2022-08-25T14:48:27;32.90;93.40
26583;DHT22;14230;45.382;10.998;2022-08-25T14:50:57;32.90;93.50
26583;DHT22;14230;45.382;10.998;2022-08-25T14:53:26;32.90;93.20
26583;DHT22;14230;45.382;10.998;2022-08-25T14:55:55;32.80;92.90
26583;DHT22;14230;45.382;10.998;2022-08-25T14:58:26;32.80;93.30
26583;DHT22;14230;45.382;10.998;2022-08-25T15:01:01;32.90;92.70
26583;DHT22;14230;45.382;10.998;2022-08-25T15:03:35;32.70;92.50
26583;DHT22;14230;45.382;10.998;2022-08-25T15:06:04;32.70;92.60
26583;DHT22;14230;45.382;10.998;2022-08-25T15:08:32;32.70;93.00
26583;DHT22;14230;45.382;10.998;2022-08-25T15:11:18;32.70;93.40
26583;DHT22;14230;45.382;10.998;2022-08-25T15:13:47;32.70;93.70
26583;DHT22;14230;45.382;10.998;2022-08-25T15:16:37;32.80;93.40
26583;DHT22;14230;45.382;10.998;2022-08-25T15:19:10;32.70;92.70
26583;DHT22;14230;45.382;10.998;2022-08-25T15:21:42;32.80;92.80
26583;DHT22;14230;45.382;10.998;2022-08-25T15:24:13;32.70;92.80
26583;DHT22;14230;45.382;10.998;2022-08-25T15:26:45;32.70;93.30
26583;DHT22;14230;45.382;10.998;2022-08-25T15:29:13;32.70;93.40
26583;DHT22;14230;45.382;10.998;2022-08-25T15:31:41;32.60;93.10
26583;DHT22;14230;45.382;10.998;2022-08-25T15:34:10;32.70;93.30
26583;DHT22;14230;45.382;10.998;2022-08-25T15:36:38;32.60;92.50
26583;DHT22;14230;45.382;10.998;2022-08-25T15:39:08;32.60;93.20
26583;DHT22;14230;45.382;10.998;2022-08-25T15:41:36;32.60;92.90
26583;DHT22;14230;45.382;10.998;2022-08-25T15:44:05;32.50;93.20
26583;DHT22;14230;45.382;10.998;2022-08-25T15:46:35;32.50;93.30
26583;DHT22;14230;45.382;10.998;2022-08-25T15:49:04;32.40;93.30
26583;DHT22;14230;45.382;10.998;2022-08-25T15:51:34;32.40;93.20
26583;DHT22;14230;45.382;10.998;2022-08-25T15:54:02;32.30;93.20
26583;DHT22;14230;45.382;10.998;2022-08-25T15:56:30;32.40;92.70
26583;DHT22;14230;45.382;10.998;2022-08-25T15:58:58;32.30;92.70
26583;DHT22;14230;45.382;10.998;2022-08-25T16:01:26;32.30;92.20
26583;DHT22;14230;45.382;10.998;2022-08-25T16:03:57;32.30;91.80
26583;DHT22;14230;45.382;10.998;2022-08-25T16:06:25;32.20;91.90
26583;DHT22;14230;45.382;10.998;2022-08-25T16:08:53;32.10;92.20
26583;DHT22;14230;45.382;10.998;2022-08-25T16:11:23;32.10;92.90
26583;DHT22;14230;45.382;10.998;2022-08-25T16:13:52;32.00;93.10
26583;DHT22;14230;45.382;10.998;2022-08-25T16:16:22;32.10;93.10
26583;DHT22;14230;45.382;10.998;2022-08-25T16:18:50;32.00;93.50
26583;DHT22;14230;45.382;10.998;2022-08-25T16:21:21;32.00;93.30
26583;DHT22;14230;45.382;10.998;2022-08-25T16:24:00;32.00;93.20
26583;DHT22;14230;45.382;10.998;2022-08-25T16:26:35;31.90;93.10
26583;DHT22;14230;45.382;10.998;2022-08-25T16:29:14;31.80;93.10
26583;DHT22;14230;45.382;10.998;2022-08-25T16:31:43;31.80;93.80
26583;DHT22;14230;45.382;10.998;2022-08-25T16:34:19;31.80;93.40
26583;DHT22;14230;45.382;10.998;2022-08-25T16:36:47;31.70;94.00
26583;DHT22;14230;45.382;10.998;2022-08-25T16:39:19;31.70;94.10
26583;DHT22;14230;45.382;10.998;2022-08-25T16:41:47;31.60;94.10
26583;DHT22;14230;45.382;10.998;2022-08-25T16:44:18;31.60;94.00
26583;DHT22;14230;45.382;10.998;2022-08-25T16:46:49;31.60;94.50
26583;DHT22;14230;45.382;10.998;2022-08-25T16:49:21;31.60;94.60
26583;DHT22;14230;45.382;10.998;2022-08-25T16:51:52;31.60;94.50
26583;DHT22;14230;45.382;10.998;2022-08-25T16:54:24;31.50;94.10
26583;DHT22;14230;45.382;10.998;2022-08-25T16:57:11;31.50;94.30
26583;DHT22;14230;45.382;10.998;2022-08-25T16:59:39;31.50;94.40
26583;DHT22;14230;45.382;10.998;2022-08-25T17:02:10;31.50;94.40
26583;DHT22;14230;45.382;10.998;2022-08-25T17:04:38;31.40;94.40
26583;DHT22;14230;45.382;10.998;2022-08-25T17:07:07;31.40;94.40
26583;DHT22;14230;45.382;10.998;2022-08-25T17:09:34;31.30;95.10
26583;DHT22;14230;45.382;10.998;2022-08-25T17:12:03;31.30;94.70
26583;DHT22;14230;45.382;10.998;2022-08-25T17:14:31;31.30;94.70
26583;DHT22;14230;45.382;10.998;2022-08-25T17:16:59;31.20;94.90
26583;DHT22;14230;45.382;10.998;2022-08-25T17:19:27;31.20;95.30
26583;DHT22;14230;45.382;10.998;2022-08-25T17:21:55;31.10;96.20
26583;DHT22;14230;45.382;10.998;2022-08-25T17:24:25;31.10;96.50
26583;DHT22;14230;45.382;10.998;2022-08-25T17:26:58;31.00;96.80
26583;DHT22;14230;45.382;10.998;2022-08-25T17:29:28;31.00;97.10
26583;DHT22;14230;45.382;10.998;2022-08-25T17:31:55;30.90;97.30
26583;DHT22;14230;45.382;10.998;2022-08-25T17:34:24;30.80;97.40
26583;DHT22;14230;45.382;10.998;2022-08-25T17:36:52;30.70;97.80
26583;DHT22;14230;45.382;10.998;2022-08-25T17:39:21;30.70;98.10
26583;DHT22;14230;45.382;10.998;2022-08-25T17:41:50;30.60;98.20
26583;DHT22;14230;45.382;10.998;2022-08-25T17:44:18;30.50;98.20
26583;DHT22;14230;45.382;10.998;2022-08-25T17:46:46;30.50;98.60
26583;DHT22;14230;45.382;10.998;2022-08-25T17:49:15;30.40;99.00